Greenfield, Iowa
Current Conditions -  °F | °C
As of 12:35 PM on Thursday 23 Oct 2014 (Local Time) from KCSQ Reporting Station
Broken Clouds Broken Clouds  
Wind Chill: 64°   Ceiling: 2400
Heat Index: 64°   Visibility: 10mi
Dew Point: 59°   Wind: 12mph
Humidity: 83%   Direction: 300°WNW
Pressure: 30.07"   Gusts: NA
Location:  41.31°N, 94.46°W
Report Text: KCSQ 231735Z AUTO 30010KT 10SM FEW018 BKN024 BKN029 18/15 A3007 RMK AO2
Loading
Personal Weather Stations






























Interactive Weather Map
Tropical Storm Tracking
New forecast layout! Learn more

10-Day Weather Forecast

Advertisements
Track Severe Weather on mobile